Pagrindinis puslapis
METAR-TAF:

METAR-TAF

Oro uostai :

Malė, Maldyvai

platuma: 04-12N, ilguma: 073-32E, Aukštis: 2 m

Dabartinis oras

Ataskaita buvo paskelbta 49 minutes, ne 20:00 UTC
Vėjas 2 kt nuo kintamojo kryptimis
Temperatūra 29°C
Drėgmė 79%
Slėgis 1010 hPa
Matomumas 10 km arba daugiau
Išsisklaidę debesys ne aukštis 1800 ft
Su prošvaistėmis ne aukštis 27000 ft

METAR: VRMM 172000Z VRB02KT 9999 SCT018 BKN270 29/25 Q1010 NOSIG

Laikas: 01:49 (20:49 UTC)

Prognozė

Ataskaita buvo paskelbta 3 valandos ir 49 minutes, ne 17:00 UTC
Prognozė galioja nuo 17 metu 18 UTC su 18 metu 24 UTC
Vėjas 7 kt iš Šiaurės/Šiaurės Vakarų
Matomumas 10 km arba daugiau
Mažai debesys ne aukštis 1800 ft
Laikinai
nuo 17 metu 18 UTC su 17 metu 24 UTC
Mažai debesys ne aukštis 1800 ft, Liūtiniai kamuoliniai debesys.

TAF: VRMM 171700Z 1718/1824 34007KT 9999 FEW018 TEMPO 1718/1724 FEW018CB

Orai ataskaitas ir orų prognozės (METAR, TAF).

turimą stotys yra geltonos ir raudonos taškus žemėlapyje.

Perkelti pele per norėdami pamatyti stoties vardą.

Tada spustelėkite, norėdami matyti oro stebėjimo ir prognozės.

Norėdami pakeisti žemėlapį: spustelėkite ant žalios mygtukų su juodo kryžiaus žemyn,; žalią mygtuką su brūkšneliu, jei norite nutolinti; arba žalių rodyklių gretimoms žemėlapius.


METAR-TAF: